sensor_id;sensor_type;location;lat;lon;timestamp;P1;durP1;ratioP1;P2;durP2;ratioP2
39502;SDS011;26970;49.900;10.774;2024-02-15T00:02:03;5.38;;;3.10;;
39502;SDS011;26970;49.900;10.774;2024-02-15T00:04:29;5.90;;;3.47;;
39502;SDS011;26970;49.900;10.774;2024-02-15T00:06:56;7.45;;;3.83;;
39502;SDS011;26970;49.900;10.774;2024-02-15T00:09:22;8.13;;;4.82;;
39502;SDS011;26970;49.900;10.774;2024-02-15T00:11:47;6.13;;;3.80;;
39502;SDS011;26970;49.900;10.774;2024-02-15T00:14:13;5.53;;;3.78;;
39502;SDS011;26970;49.900;10.774;2024-02-15T00:16:38;6.40;;;4.10;;
39502;SDS011;26970;49.900;10.774;2024-02-15T00:19:04;7.43;;;3.75;;
39502;SDS011;26970;49.900;10.774;2024-02-15T00:21:31;9.48;;;3.75;;
39502;SDS011;26970;49.900;10.774;2024-02-15T00:23:57;9.48;;;4.25;;
39502;SDS011;26970;49.900;10.774;2024-02-15T00:26:24;7.25;;;4.20;;
39502;SDS011;26970;49.900;10.774;2024-02-15T00:28:50;5.88;;;3.83;;
39502;SDS011;26970;49.900;10.774;2024-02-15T00:31:16;8.20;;;4.03;;
39502;SDS011;26970;49.900;10.774;2024-02-15T00:33:42;7.30;;;3.90;;
39502;SDS011;26970;49.900;10.774;2024-02-15T00:36:08;6.47;;;3.90;;
39502;SDS011;26970;49.900;10.774;2024-02-15T00:38:35;7.32;;;4.38;;
39502;SDS011;26970;49.900;10.774;2024-02-15T00:41:00;9.27;;;4.50;;
39502;SDS011;26970;49.900;10.774;2024-02-15T00:43:26;6.22;;;4.18;;
39502;SDS011;26970;49.900;10.774;2024-02-15T00:45:52;9.13;;;4.53;;
39502;SDS011;26970;49.900;10.774;2024-02-15T00:48:18;11.55;;;4.70;;
39502;SDS011;26970;49.900;10.774;2024-02-15T00:50:43;8.93;;;4.90;;
39502;SDS011;26970;49.900;10.774;2024-02-15T00:53:09;7.85;;;4.75;;
39502;SDS011;26970;49.900;10.774;2024-02-15T00:55:35;9.48;;;4.88;;
39502;SDS011;26970;49.900;10.774;2024-02-15T00:58:01;7.68;;;4.70;;
39502;SDS011;26970;49.900;10.774;2024-02-15T01:00:27;7.00;;;3.90;;
39502;SDS011;26970;49.900;10.774;2024-02-15T01:02:53;7.38;;;4.47;;
39502;SDS011;26970;49.900;10.774;2024-02-15T01:05:19;8.65;;;4.65;;
39502;SDS011;26970;49.900;10.774;2024-02-15T01:07:45;8.95;;;4.60;;
39502;SDS011;26970;49.900;10.774;2024-02-15T01:10:10;7.65;;;4.20;;
39502;SDS011;26970;49.900;10.774;2024-02-15T01:12:36;7.30;;;4.13;;
39502;SDS011;26970;49.900;10.774;2024-02-15T01:15:01;8.10;;;4.57;;
39502;SDS011;26970;49.900;10.774;2024-02-15T01:17:27;7.60;;;4.60;;
39502;SDS011;26970;49.900;10.774;2024-02-15T01:19:53;7.22;;;4.10;;
39502;SDS011;26970;49.900;10.774;2024-02-15T01:22:19;9.25;;;4.35;;
39502;SDS011;26970;49.900;10.774;2024-02-15T01:24:48;6.95;;;4.70;;
39502;SDS011;26970;49.900;10.774;2024-02-15T01:27:14;8.55;;;4.47;;
39502;SDS011;26970;49.900;10.774;2024-02-15T01:29:39;6.35;;;4.00;;
39502;SDS011;26970;49.900;10.774;2024-02-15T01:32:05;9.55;;;4.15;;
39502;SDS011;26970;49.900;10.774;2024-02-15T01:34:30;7.00;;;4.38;;
39502;SDS011;26970;49.900;10.774;2024-02-15T01:36:56;7.57;;;4.60;;
39502;SDS011;26970;49.900;10.774;2024-02-15T01:39:21;8.27;;;4.75;;
39502;SDS011;26970;49.900;10.774;2024-02-15T01:41:47;9.07;;;4.55;;
39502;SDS011;26970;49.900;10.774;2024-02-15T01:44:15;6.97;;;4.40;;
39502;SDS011;26970;49.900;10.774;2024-02-15T01:46:42;6.07;;;3.47;;
39502;SDS011;26970;49.900;10.774;2024-02-15T01:49:08;6.03;;;4.03;;
39502;SDS011;26970;49.900;10.774;2024-02-15T01:51:34;10.02;;;4.82;;
39502;SDS011;26970;49.900;10.774;2024-02-15T01:54:02;10.02;;;4.68;;
39502;SDS011;26970;49.900;10.774;2024-02-15T01:56:28;7.97;;;4.57;;
39502;SDS011;26970;49.900;10.774;2024-02-15T01:58:55;8.25;;;5.15;;
39502;SDS011;26970;49.900;10.774;2024-02-15T02:01:22;7.25;;;4.78;;
39502;SDS011;26970;49.900;10.774;2024-02-15T02:03:48;7.40;;;4.70;;
39502;SDS011;26970;49.900;10.774;2024-02-15T02:06:13;9.60;;;4.72;;
39502;SDS011;26970;49.900;10.774;2024-02-15T02:08:39;6.70;;;4.78;;
39502;SDS011;26970;49.900;10.774;2024-02-15T02:11:04;6.70;;;4.95;;
39502;SDS011;26970;49.900;10.774;2024-02-15T02:13:31;7.38;;;4.82;;
39502;SDS011;26970;49.900;10.774;2024-02-15T02:15:56;8.23;;;4.82;;
39502;SDS011;26970;49.900;10.774;2024-02-15T02:18:22;8.38;;;5.20;;
39502;SDS011;26970;49.900;10.774;2024-02-15T02:20:49;10.40;;;5.18;;
39502;SDS011;26970;49.900;10.774;2024-02-15T02:23:15;7.80;;;4.85;;
39502;SDS011;26970;49.900;10.774;2024-02-15T02:25:43;10.73;;;5.22;;
39502;SDS011;26970;49.900;10.774;2024-02-15T02:28:09;9.10;;;5.65;;
39502;SDS011;26970;49.900;10.774;2024-02-15T02:30:35;9.52;;;6.15;;
39502;SDS011;26970;49.900;10.774;2024-02-15T02:33:01;9.63;;;5.55;;
39502;SDS011;26970;49.900;10.774;2024-02-15T02:35:27;10.43;;;5.45;;
39502;SDS011;26970;49.900;10.774;2024-02-15T02:37:54;12.45;;;6.13;;
39502;SDS011;26970;49.900;10.774;2024-02-15T02:40:21;10.25;;;5.75;;
39502;SDS011;26970;49.900;10.774;2024-02-15T02:45:16;9.38;;;5.72;;
39502;SDS011;26970;49.900;10.774;2024-02-15T02:47:44;9.52;;;5.90;;
39502;SDS011;26970;49.900;10.774;2024-02-15T02:50:11;9.35;;;5.20;;
39502;SDS011;26970;49.900;10.774;2024-02-15T02:52:37;9.68;;;5.68;;
39502;SDS011;26970;49.900;10.774;2024-02-15T02:55:04;10.90;;;6.38;;
39502;SDS011;26970;49.900;10.774;2024-02-15T02:57:33;12.45;;;5.50;;
39502;SDS011;26970;49.900;10.774;2024-02-15T03:00:02;9.35;;;5.07;;
39502;SDS011;26970;49.900;10.774;2024-02-15T03:02:33;7.47;;;4.95;;
39502;SDS011;26970;49.900;10.774;2024-02-15T03:05:01;12.23;;;5.60;;
39502;SDS011;26970;49.900;10.774;2024-02-15T03:07:37;14.43;;;5.70;;
39502;SDS011;26970;49.900;10.774;2024-02-15T03:10:05;8.52;;;5.10;;
39502;SDS011;26970;49.900;10.774;2024-02-15T03:12:33;8.75;;;5.13;;
39502;SDS011;26970;49.900;10.774;2024-02-15T03:15:00;9.18;;;5.47;;
39502;SDS011;26970;49.900;10.774;2024-02-15T03:17:27;8.32;;;5.53;;
39502;SDS011;26970;49.900;10.774;2024-02-15T03:19:52;10.95;;;5.05;;
39502;SDS011;26970;49.900;10.774;2024-02-15T03:22:18;9.25;;;5.18;;
39502;SDS011;26970;49.900;10.774;2024-02-15T03:24:43;11.77;;;5.68;;
39502;SDS011;26970;49.900;10.774;2024-02-15T03:27:09;8.45;;;4.70;;
39502;SDS011;26970;49.900;10.774;2024-02-15T03:29:35;10.65;;;5.93;;
39502;SDS011;26970;49.900;10.774;2024-02-15T03:32:04;11.73;;;5.60;;
39502;SDS011;26970;49.900;10.774;2024-02-15T03:34:30;14.88;;;5.10;;
39502;SDS011;26970;49.900;10.774;2024-02-15T03:36:56;14.23;;;5.10;;
39502;SDS011;26970;49.900;10.774;2024-02-15T03:39:22;10.25;;;4.90;;
39502;SDS011;26970;49.900;10.774;2024-02-15T03:41:48;14.20;;;5.68;;
39502;SDS011;26970;49.900;10.774;2024-02-15T03:44:15;7.70;;;5.05;;
39502;SDS011;26970;49.900;10.774;2024-02-15T03:46:43;9.07;;;5.68;;
39502;SDS011;26970;49.900;10.774;2024-02-15T03:51:41;11.15;;;5.28;;
39502;SDS011;26970;49.900;10.774;2024-02-15T03:54:08;13.00;;;6.20;;
39502;SDS011;26970;49.900;10.774;2024-02-15T03:56:34;11.27;;;5.75;;
39502;SDS011;26970;49.900;10.774;2024-02-15T03:59:01;8.98;;;5.18;;
39502;SDS011;26970;49.900;10.774;2024-02-15T04:01:29;11.88;;;5.00;;
39502;SDS011;26970;49.900;10.774;2024-02-15T04:03:58;14.90;;;5.13;;
39502;SDS011;26970;49.900;10.774;2024-02-15T04:06:24;9.10;;;4.88;;
39502;SDS011;26970;49.900;10.774;2024-02-15T04:08:52;9.68;;;5.40;;
39502;SDS011;26970;49.900;10.774;2024-02-15T04:11:18;9.25;;;5.53;;
39502;SDS011;26970;49.900;10.774;2024-02-15T04:13:44;9.38;;;5.47;;
39502;SDS011;26970;49.900;10.774;2024-02-15T04:16:10;9.80;;;5.30;;
39502;SDS011;26970;49.900;10.774;2024-02-15T04:18:35;9.27;;;4.70;;
39502;SDS011;26970;49.900;10.774;2024-02-15T04:21:02;11.02;;;5.07;;
39502;SDS011;26970;49.900;10.774;2024-02-15T04:23:30;8.65;;;5.05;;
39502;SDS011;26970;49.900;10.774;2024-02-15T04:25:56;7.68;;;4.25;;
39502;SDS011;26970;49.900;10.774;2024-02-15T04:28:22;11.30;;;4.32;;
39502;SDS011;26970;49.900;10.774;2024-02-15T04:30:48;7.88;;;4.85;;
39502;SDS011;26970;49.900;10.774;2024-02-15T04:33:14;9.45;;;4.65;;
39502;SDS011;26970;49.900;10.774;2024-02-15T04:35:41;8.95;;;4.97;;
39502;SDS011;26970;49.900;10.774;2024-02-15T04:38:07;10.23;;;4.43;;
39502;SDS011;26970;49.900;10.774;2024-02-15T04:40:33;8.00;;;4.78;;
39502;SDS011;26970;49.900;10.774;2024-02-15T04:43:00;10.40;;;4.90;;
39502;SDS011;26970;49.900;10.774;2024-02-15T04:45:29;7.78;;;4.53;;
39502;SDS011;26970;49.900;10.774;2024-02-15T04:47:55;10.95;;;5.07;;
39502;SDS011;26970;49.900;10.774;2024-02-15T04:50:22;9.45;;;5.28;;
39502;SDS011;26970;49.900;10.774;2024-02-15T04:52:47;9.18;;;5.32;;
39502;SDS011;26970;49.900;10.774;2024-02-15T04:55:14;10.50;;;5.05;;
39502;SDS011;26970;49.900;10.774;2024-02-15T04:57:40;9.48;;;5.22;;
39502;SDS011;26970;49.900;10.774;2024-02-15T05:00:06;11.18;;;5.20;;
39502;SDS011;26970;49.900;10.774;2024-02-15T05:02:35;10.40;;;5.32;;
39502;SDS011;26970;49.900;10.774;2024-02-15T05:05:05;9.60;;;5.88;;
39502;SDS011;26970;49.900;10.774;2024-02-15T05:07:32;10.02;;;6.05;;
39502;SDS011;26970;49.900;10.774;2024-02-15T05:09:59;13.43;;;5.82;;
39502;SDS011;26970;49.900;10.774;2024-02-15T05:12:28;12.75;;;5.57;;
39502;SDS011;26970;49.900;10.774;2024-02-15T05:14:54;11.38;;;6.25;;
39502;SDS011;26970;49.900;10.774;2024-02-15T05:17:20;11.45;;;6.20;;
39502;SDS011;26970;49.900;10.774;2024-02-15T05:19:46;10.70;;;6.25;;
39502;SDS011;26970;49.900;10.774;2024-02-15T05:22:12;11.90;;;5.55;;
39502;SDS011;26970;49.900;10.774;2024-02-15T05:24:40;10.55;;;6.05;;
39502;SDS011;26970;49.900;10.774;2024-02-15T05:27:05;13.20;;;6.55;;
39502;SDS011;26970;49.900;10.774;2024-02-15T05:29:31;44.15;;;20.75;;
39502;SDS011;26970;49.900;10.774;2024-02-15T05:32:00;62.15;;;29.98;;
39502;SDS011;26970;49.900;10.774;2024-02-15T05:34:26;120.45;;;54.92;;
39502;SDS011;26970;49.900;10.774;2024-02-15T05:36:54;46.60;;;27.23;;
39502;SDS011;26970;49.900;10.774;2024-02-15T05:39:20;20.75;;;14.27;;
39502;SDS011;26970;49.900;10.774;2024-02-15T05:41:47;16.50;;;9.55;;
39502;SDS011;26970;49.900;10.774;2024-02-15T05:44:13;16.20;;;8.38;;
39502;SDS011;26970;49.900;10.774;2024-02-15T05:46:43;20.35;;;8.25;;
39502;SDS011;26970;49.900;10.774;2024-02-15T05:49:08;12.80;;;7.35;;
39502;SDS011;26970;49.900;10.774;2024-02-15T05:51:40;13.07;;;7.80;;
39502;SDS011;26970;49.900;10.774;2024-02-15T05:54:05;10.93;;;6.85;;
39502;SDS011;26970;49.900;10.774;2024-02-15T05:56:31;12.40;;;7.00;;
39502;SDS011;26970;49.900;10.774;2024-02-15T05:58:56;14.75;;;7.03;;
39502;SDS011;26970;49.900;10.774;2024-02-15T06:01:22;14.18;;;7.32;;
39502;SDS011;26970;49.900;10.774;2024-02-15T06:03:48;12.00;;;6.78;;
39502;SDS011;26970;49.900;10.774;2024-02-15T06:06:14;13.35;;;7.38;;
39502;SDS011;26970;49.900;10.774;2024-02-15T06:08:40;15.18;;;7.53;;
39502;SDS011;26970;49.900;10.774;2024-02-15T06:11:05;19.42;;;8.23;;
39502;SDS011;26970;49.900;10.774;2024-02-15T06:13:31;12.75;;;6.40;;
39502;SDS011;26970;49.900;10.774;2024-02-15T06:15:57;14.13;;;7.25;;
39502;SDS011;26970;49.900;10.774;2024-02-15T06:18:23;14.52;;;6.60;;
39502;SDS011;26970;49.900;10.774;2024-02-15T06:20:52;12.63;;;6.93;;
39502;SDS011;26970;49.900;10.774;2024-02-15T06:23:18;12.30;;;7.22;;
39502;SDS011;26970;49.900;10.774;2024-02-15T06:25:44;11.55;;;7.10;;
39502;SDS011;26970;49.900;10.774;2024-02-15T06:28:12;16.67;;;7.15;;
39502;SDS011;26970;49.900;10.774;2024-02-15T06:30:44;13.15;;;6.78;;
39502;SDS011;26970;49.900;10.774;2024-02-15T06:33:31;11.10;;;6.88;;
39502;SDS011;26970;49.900;10.774;2024-02-15T06:36:15;12.10;;;6.95;;
39502;SDS011;26970;49.900;10.774;2024-02-15T06:38:59;14.68;;;6.88;;
39502;SDS011;26970;49.900;10.774;2024-02-15T06:41:43;15.35;;;7.18;;
39502;SDS011;26970;49.900;10.774;2024-02-15T06:44:09;13.23;;;7.13;;
39502;SDS011;26970;49.900;10.774;2024-02-15T06:46:34;11.73;;;7.10;;
39502;SDS011;26970;49.900;10.774;2024-02-15T06:49:00;12.55;;;7.25;;
39502;SDS011;26970;49.900;10.774;2024-02-15T06:51:26;15.35;;;8.20;;
39502;SDS011;26970;49.900;10.774;2024-02-15T06:53:51;15.82;;;7.80;;
39502;SDS011;26970;49.900;10.774;2024-02-15T06:56:20;12.55;;;6.45;;
39502;SDS011;26970;49.900;10.774;2024-02-15T06:58:46;11.77;;;6.75;;
39502;SDS011;26970;49.900;10.774;2024-02-15T07:01:13;13.25;;;7.38;;
39502;SDS011;26970;49.900;10.774;2024-02-15T07:03:41;12.30;;;7.47;;
39502;SDS011;26970;49.900;10.774;2024-02-15T07:06:09;12.38;;;7.40;;
39502;SDS011;26970;49.900;10.774;2024-02-15T07:08:34;15.25;;;8.23;;
39502;SDS011;26970;49.900;10.774;2024-02-15T07:11:00;14.63;;;7.35;;
39502;SDS011;26970;49.900;10.774;2024-02-15T07:13:27;15.68;;;8.13;;
39502;SDS011;26970;49.900;10.774;2024-02-15T07:15:53;13.02;;;7.68;;
39502;SDS011;26970;49.900;10.774;2024-02-15T07:18:20;13.73;;;7.88;;
39502;SDS011;26970;49.900;10.774;2024-02-15T07:20:47;12.93;;;7.75;;
39502;SDS011;26970;49.900;10.774;2024-02-15T07:23:12;15.38;;;7.88;;
39502;SDS011;26970;49.900;10.774;2024-02-15T07:25:39;14.85;;;8.73;;
39502;SDS011;26970;49.900;10.774;2024-02-15T07:28:06;13.85;;;7.60;;
39502;SDS011;26970;49.900;10.774;2024-02-15T07:30:34;14.80;;;8.07;;
39502;SDS011;26970;49.900;10.774;2024-02-15T07:32:59;14.15;;;8.35;;
39502;SDS011;26970;49.900;10.774;2024-02-15T07:35:25;13.40;;;8.65;;
39502;SDS011;26970;49.900;10.774;2024-02-15T07:37:51;12.60;;;7.47;;
39502;SDS011;26970;49.900;10.774;2024-02-15T07:40:25;13.40;;;8.23;;
39502;SDS011;26970;49.900;10.774;2024-02-15T07:42:54;16.35;;;8.18;;
39502;SDS011;26970;49.900;10.774;2024-02-15T07:45:21;19.15;;;8.98;;
39502;SDS011;26970;49.900;10.774;2024-02-15T07:47:47;13.80;;;8.30;;
39502;SDS011;26970;49.900;10.774;2024-02-15T07:50:17;14.35;;;8.45;;
39502;SDS011;26970;49.900;10.774;2024-02-15T07:52:48;17.52;;;8.45;;
39502;SDS011;26970;49.900;10.774;2024-02-15T07:55:14;14.60;;;7.90;;
39502;SDS011;26970;49.900;10.774;2024-02-15T07:57:40;12.43;;;7.55;;
39502;SDS011;26970;49.900;10.774;2024-02-15T08:00:06;11.27;;;7.22;;
39502;SDS011;26970;49.900;10.774;2024-02-15T08:02:39;10.98;;;7.20;;
39502;SDS011;26970;49.900;10.774;2024-02-15T08:05:07;16.30;;;8.40;;
39502;SDS011;26970;49.900;10.774;2024-02-15T08:07:45;11.40;;;7.20;;
39502;SDS011;26970;49.900;10.774;2024-02-15T08:10:12;10.65;;;7.30;;
39502;SDS011;26970;49.900;10.774;2024-02-15T08:12:42;13.60;;;7.53;;
39502;SDS011;26970;49.900;10.774;2024-02-15T08:15:09;14.18;;;7.65;;
39502;SDS011;26970;49.900;10.774;2024-02-15T08:17:40;14.52;;;7.53;;
39502;SDS011;26970;49.900;10.774;2024-02-15T08:20:11;12.63;;;7.72;;
39502;SDS011;26970;49.900;10.774;2024-02-15T08:22:38;10.93;;;6.97;;
39502;SDS011;26970;49.900;10.774;2024-02-15T08:25:07;15.40;;;7.68;;
39502;SDS011;26970;49.900;10.774;2024-02-15T08:27:35;11.93;;;7.40;;
39502;SDS011;26970;49.900;10.774;2024-02-15T08:30:09;12.10;;;6.93;;
39502;SDS011;26970;49.900;10.774;2024-02-15T08:32:36;14.35;;;7.13;;
39502;SDS011;26970;49.900;10.774;2024-02-15T08:35:04;12.18;;;7.32;;
39502;SDS011;26970;49.900;10.774;2024-02-15T08:37:34;13.50;;;6.88;;
39502;SDS011;26970;49.900;10.774;2024-02-15T08:40:01;11.52;;;6.90;;
39502;SDS011;26970;49.900;10.774;2024-02-15T08:42:36;11.55;;;6.47;;
39502;SDS011;26970;49.900;10.774;2024-02-15T08:45:05;12.82;;;7.25;;
39502;SDS011;26970;49.900;10.774;2024-02-15T08:47:33;11.52;;;5.88;;
39502;SDS011;26970;49.900;10.774;2024-02-15T08:50:03;10.95;;;6.68;;
39502;SDS011;26970;49.900;10.774;2024-02-15T08:52:29;9.68;;;6.20;;
39502;SDS011;26970;49.900;10.774;2024-02-15T08:54:55;10.40;;;6.65;;
39502;SDS011;26970;49.900;10.774;2024-02-15T08:57:22;10.50;;;6.25;;
39502;SDS011;26970;49.900;10.774;2024-02-15T08:59:48;9.25;;;6.70;;
39502;SDS011;26970;49.900;10.774;2024-02-15T09:02:16;12.45;;;6.35;;
39502;SDS011;26970;49.900;10.774;2024-02-15T09:04:42;10.98;;;6.53;;
39502;SDS011;26970;49.900;10.774;2024-02-15T09:07:08;12.32;;;6.90;;
39502;SDS011;26970;49.900;10.774;2024-02-15T09:09:34;12.10;;;6.53;;
39502;SDS011;26970;49.900;10.774;2024-02-15T09:12:01;8.63;;;6.07;;
39502;SDS011;26970;49.900;10.774;2024-02-15T09:14:30;11.63;;;6.22;;
39502;SDS011;26970;49.900;10.774;2024-02-15T09:17:01;10.00;;;6.07;;
39502;SDS011;26970;49.900;10.774;2024-02-15T09:19:32;16.95;;;7.85;;
39502;SDS011;26970;49.900;10.774;2024-02-15T09:21:58;10.85;;;6.25;;
39502;SDS011;26970;49.900;10.774;2024-02-15T09:24:23;12.70;;;5.78;;
39502;SDS011;26970;49.900;10.774;2024-02-15T09:26:50;11.57;;;6.47;;
39502;SDS011;26970;49.900;10.774;2024-02-15T09:29:16;11.60;;;5.95;;
39502;SDS011;26970;49.900;10.774;2024-02-15T09:31:41;9.13;;;5.75;;
39502;SDS011;26970;49.900;10.774;2024-02-15T09:34:08;8.35;;;5.03;;
39502;SDS011;26970;49.900;10.774;2024-02-15T09:36:34;8.10;;;4.38;;
39502;SDS011;26970;49.900;10.774;2024-02-15T09:39:02;7.15;;;4.75;;
39502;SDS011;26970;49.900;10.774;2024-02-15T09:41:28;8.40;;;4.55;;
39502;SDS011;26970;49.900;10.774;2024-02-15T09:43:54;8.93;;;4.53;;
39502;SDS011;26970;49.900;10.774;2024-02-15T09:46:20;7.80;;;4.90;;
39502;SDS011;26970;49.900;10.774;2024-02-15T09:48:49;7.13;;;4.80;;
39502;SDS011;26970;49.900;10.774;2024-02-15T09:51:16;7.30;;;4.47;;
39502;SDS011;26970;49.900;10.774;2024-02-15T09:53:45;9.70;;;4.55;;
39502;SDS011;26970;49.900;10.774;2024-02-15T09:56:12;7.38;;;4.75;;
39502;SDS011;26970;49.900;10.774;2024-02-15T09:58:40;8.70;;;4.57;;
39502;SDS011;26970;49.900;10.774;2024-02-15T10:01:06;8.68;;;4.20;;
39502;SDS011;26970;49.900;10.774;2024-02-15T10:03:38;8.15;;;4.07;;
39502;SDS011;26970;49.900;10.774;2024-02-15T10:06:07;9.95;;;4.82;;
39502;SDS011;26970;49.900;10.774;2024-02-15T10:08:32;8.23;;;4.47;;
39502;SDS011;26970;49.900;10.774;2024-02-15T10:11:08;7.72;;;4.75;;
39502;SDS011;26970;49.900;10.774;2024-02-15T10:13:34;7.57;;;4.53;;
39502;SDS011;26970;49.900;10.774;2024-02-15T10:15:59;7.80;;;4.25;;
39502;SDS011;26970;49.900;10.774;2024-02-15T10:18:39;7.03;;;4.45;;
39502;SDS011;26970;49.900;10.774;2024-02-15T10:21:04;6.43;;;3.97;;
39502;SDS011;26970;49.900;10.774;2024-02-15T10:23:30;9.02;;;4.35;;
39502;SDS011;26970;49.900;10.774;2024-02-15T10:25:55;7.20;;;4.20;;
39502;SDS011;26970;49.900;10.774;2024-02-15T10:28:23;6.20;;;3.55;;
39502;SDS011;26970;49.900;10.774;2024-02-15T10:30:49;11.68;;;3.85;;
39502;SDS011;26970;49.900;10.774;2024-02-15T10:33:18;5.82;;;3.60;;
39502;SDS011;26970;49.900;10.774;2024-02-15T10:35:47;7.32;;;3.42;;
39502;SDS011;26970;49.900;10.774;2024-02-15T10:38:13;7.80;;;3.78;;
39502;SDS011;26970;49.900;10.774;2024-02-15T10:40:39;5.75;;;3.33;;
39502;SDS011;26970;49.900;10.774;2024-02-15T10:43:08;7.07;;;3.40;;
39502;SDS011;26970;49.900;10.774;2024-02-15T10:45:38;5.32;;;3.38;;
39502;SDS011;26970;49.900;10.774;2024-02-15T10:48:10;6.43;;;3.55;;
39502;SDS011;26970;49.900;10.774;2024-02-15T10:50:40;7.72;;;3.38;;
39502;SDS011;26970;49.900;10.774;2024-02-15T10:56:14;6.57;;;3.25;;
39502;SDS011;26970;49.900;10.774;2024-02-15T10:58:47;5.90;;;3.03;;
39502;SDS011;26970;49.900;10.774;2024-02-15T11:01:18;8.30;;;2.90;;
39502;SDS011;26970;49.900;10.774;2024-02-15T11:03:51;5.20;;;2.80;;
39502;SDS011;26970;49.900;10.774;2024-02-15T11:06:21;5.88;;;2.70;;
39502;SDS011;26970;49.900;10.774;2024-02-15T11:08:51;5.35;;;2.92;;
39502;SDS011;26970;49.900;10.774;2024-02-15T11:11:18;5.85;;;2.80;;
39502;SDS011;26970;49.900;10.774;2024-02-15T11:13:44;4.28;;;2.50;;
39502;SDS011;26970;49.900;10.774;2024-02-15T11:16:29;6.38;;;3.13;;
39502;SDS011;26970;49.900;10.774;2024-02-15T11:19:08;7.30;;;2.80;;
39502;SDS011;26970;49.900;10.774;2024-02-15T11:21:53;7.50;;;2.90;;
39502;SDS011;26970;49.900;10.774;2024-02-15T11:24:29;11.25;;;3.08;;
39502;SDS011;26970;49.900;10.774;2024-02-15T11:27:02;8.20;;;3.22;;
39502;SDS011;26970;49.900;10.774;2024-02-15T11:32:41;5.35;;;2.88;;
39502;SDS011;26970;49.900;10.774;2024-02-15T11:40:23;4.75;;;2.80;;
39502;SDS011;26970;49.900;10.774;2024-02-15T11:43:01;7.30;;;2.88;;
39502;SDS011;26970;49.900;10.774;2024-02-15T11:45:29;8.00;;;2.70;;
39502;SDS011;26970;49.900;10.774;2024-02-15T11:47:59;7.45;;;2.95;;
39502;SDS011;26970;49.900;10.774;2024-02-15T11:50:27;8.13;;;2.45;;
39502;SDS011;26970;49.900;10.774;2024-02-15T11:53:01;6.88;;;2.95;;
39502;SDS011;26970;49.900;10.774;2024-02-15T11:55:31;5.97;;;2.60;;
39502;SDS011;26970;49.900;10.774;2024-02-15T11:57:58;3.30;;;2.15;;
39502;SDS011;26970;49.900;10.774;2024-02-15T12:00:33;5.93;;;2.60;;
39502;SDS011;26970;49.900;10.774;2024-02-15T12:03:20;4.80;;;2.38;;
39502;SDS011;26970;49.900;10.774;2024-02-15T12:06:05;3.90;;;2.28;;
39502;SDS011;26970;49.900;10.774;2024-02-15T12:08:50;7.35;;;2.70;;
39502;SDS011;26970;49.900;10.774;2024-02-15T12:11:35;4.90;;;2.60;;
39502;SDS011;26970;49.900;10.774;2024-02-15T12:14:20;5.43;;;2.53;;
39502;SDS011;26970;49.900;10.774;2024-02-15T12:17:05;4.63;;;2.58;;
39502;SDS011;26970;49.900;10.774;2024-02-15T12:19:51;4.95;;;2.20;;
39502;SDS011;26970;49.900;10.774;2024-02-15T12:22:22;6.25;;;2.60;;
39502;SDS011;26970;49.900;10.774;2024-02-15T12:25:00;3.78;;;2.15;;
39502;SDS011;26970;49.900;10.774;2024-02-15T12:27:54;8.88;;;2.60;;
39502;SDS011;26970;49.900;10.774;2024-02-15T12:30:21;6.93;;;2.20;;
39502;SDS011;26970;49.900;10.774;2024-02-15T12:32:48;4.13;;;2.50;;
39502;SDS011;26970;49.900;10.774;2024-02-15T12:35:15;4.18;;;2.10;;
39502;SDS011;26970;49.900;10.774;2024-02-15T12:37:43;6.05;;;3.13;;
39502;SDS011;26970;49.900;10.774;2024-02-15T12:42:41;3.58;;;2.35;;
39502;SDS011;26970;49.900;10.774;2024-02-15T12:45:14;5.85;;;2.10;;
39502;SDS011;26970;49.900;10.774;2024-02-15T12:47:42;3.88;;;2.03;;
39502;SDS011;26970;49.900;10.774;2024-02-15T12:50:12;3.60;;;2.00;;
39502;SDS011;26970;49.900;10.774;2024-02-15T12:52:39;3.83;;;2.50;;
39502;SDS011;26970;49.900;10.774;2024-02-15T12:55:09;4.45;;;2.08;;
39502;SDS011;26970;49.900;10.774;2024-02-15T12:57:36;4.65;;;2.40;;
39502;SDS011;26970;49.900;10.774;2024-02-15T13:00:05;7.43;;;2.30;;
39502;SDS011;26970;49.900;10.774;2024-02-15T13:02:39;5.57;;;2.15;;
39502;SDS011;26970;49.900;10.774;2024-02-15T13:05:05;4.60;;;2.30;;
39502;SDS011;26970;49.900;10.774;2024-02-15T13:07:35;3.75;;;2.08;;
39502;SDS011;26970;49.900;10.774;2024-02-15T13:10:01;5.90;;;2.00;;
39502;SDS011;26970;49.900;10.774;2024-02-15T13:12:28;4.07;;;1.88;;
39502;SDS011;26970;49.900;10.774;2024-02-15T13:14:54;4.47;;;2.22;;
39502;SDS011;26970;49.900;10.774;2024-02-15T13:17:20;5.72;;;2.00;;
39502;SDS011;26970;49.900;10.774;2024-02-15T13:19:46;5.80;;;2.10;;
39502;SDS011;26970;49.900;10.774;2024-02-15T13:22:14;6.50;;;1.92;;
39502;SDS011;26970;49.900;10.774;2024-02-15T13:24:40;5.07;;;2.03;;
39502;SDS011;26970;49.900;10.774;2024-02-15T13:27:07;4.47;;;2.10;;
39502;SDS011;26970;49.900;10.774;2024-02-15T13:29:37;5.43;;;2.15;;
39502;SDS011;26970;49.900;10.774;2024-02-15T13:32:03;5.28;;;2.00;;
39502;SDS011;26970;49.900;10.774;2024-02-15T13:34:30;5.72;;;1.77;;
39502;SDS011;26970;49.900;10.774;2024-02-15T13:36:58;5.30;;;2.15;;
39502;SDS011;26970;49.900;10.774;2024-02-15T13:39:26;4.57;;;2.10;;
39502;SDS011;26970;49.900;10.774;2024-02-15T13:41:57;3.17;;;1.80;;
39502;SDS011;26970;49.900;10.774;2024-02-15T13:44:24;5.85;;;2.10;;
39502;SDS011;26970;49.900;10.774;2024-02-15T13:46:49;3.80;;;2.00;;
39502;SDS011;26970;49.900;10.774;2024-02-15T13:49:15;5.40;;;1.70;;
39502;SDS011;26970;49.900;10.774;2024-02-15T13:51:41;5.80;;;1.88;;
39502;SDS011;26970;49.900;10.774;2024-02-15T13:54:07;4.13;;;1.60;;
39502;SDS011;26970;49.900;10.774;2024-02-15T13:56:33;5.97;;;1.77;;
39502;SDS011;26970;49.900;10.774;2024-02-15T13:58:58;4.63;;;1.70;;
39502;SDS011;26970;49.900;10.774;2024-02-15T14:01:24;5.60;;;1.70;;
39502;SDS011;26970;49.900;10.774;2024-02-15T14:03:50;5.25;;;1.73;;
39502;SDS011;26970;49.900;10.774;2024-02-15T14:06:17;4.43;;;1.98;;
39502;SDS011;26970;49.900;10.774;2024-02-15T14:08:43;2.78;;;1.77;;
39502;SDS011;26970;49.900;10.774;2024-02-15T14:11:09;2.70;;;1.45;;
39502;SDS011;26970;49.900;10.774;2024-02-15T14:13:35;5.75;;;2.42;;
39502;SDS011;26970;49.900;10.774;2024-02-15T14:16:01;3.08;;;1.50;;
39502;SDS011;26970;49.900;10.774;2024-02-15T14:18:27;2.58;;;1.60;;
39502;SDS011;26970;49.900;10.774;2024-02-15T14:20:54;3.45;;;1.77;;
39502;SDS011;26970;49.900;10.774;2024-02-15T14:23:19;4.00;;;1.55;;
39502;SDS011;26970;49.900;10.774;2024-02-15T14:25:45;3.40;;;1.58;;
39502;SDS011;26970;49.900;10.774;2024-02-15T14:28:11;3.05;;;1.33;;
39502;SDS011;26970;49.900;10.774;2024-02-15T14:30:39;4.68;;;1.50;;
39502;SDS011;26970;49.900;10.774;2024-02-15T14:33:23;5.00;;;1.90;;
39502;SDS011;26970;49.900;10.774;2024-02-15T14:35:49;3.72;;;1.77;;
39502;SDS011;26970;49.900;10.774;2024-02-15T14:38:18;6.45;;;1.20;;
39502;SDS011;26970;49.900;10.774;2024-02-15T14:40:45;6.35;;;1.50;;
39502;SDS011;26970;49.900;10.774;2024-02-15T14:43:16;4.07;;;1.77;;
39502;SDS011;26970;49.900;10.774;2024-02-15T14:45:44;3.15;;;1.60;;
39502;SDS011;26970;49.900;10.774;2024-02-15T14:48:09;6.28;;;1.45;;
39502;SDS011;26970;49.900;10.774;2024-02-15T14:50:39;5.38;;;1.73;;
39502;SDS011;26970;49.900;10.774;2024-02-15T14:53:05;3.58;;;1.67;;